Time;durP1;ratioP1;P1;durP2;ratioP2;P2;SDS_P1;SDS_P2;PMS_P1;PMS_P2;Temp;Humidity;BMP_temperature;BMP_pressure;BME280_temperature;BME280_humidity;BME280_pressure;Samples;Min_cycle;Max_cycle;Signal;HPM_P1;HPM_P2
2024/04/13 00:02:07;;;;;;;5.60;4.57;;;15.50;1.00;;;;;;5324709;26;20479;-70
2024/04/13 00:04:33;;;;;;;7.10;6.40;;;15.50;1.00;;;;;;5311419;26;20854;-70
2024/04/13 00:07:02;;;;;;;7.40;6.70;;;15.50;1.00;;;;;;5318736;26;20947;-73
2024/04/13 00:09:31;;;;;;;8.77;6.47;;;15.40;1.00;;;;;;5321501;26;20495;-72
2024/04/13 00:11:59;;;;;;;6.80;6.13;;;15.40;1.00;;;;;;5308276;26;20542;-71
2024/04/13 00:14:25;;;;;;;6.70;5.80;;;15.40;1.00;;;;;;5322930;26;20639;-72
2024/04/13 00:16:54;;;;;;;5.43;4.93;;;15.40;1.00;;;;;;5321164;26;20495;-72
2024/04/13 00:19:20;;;;;;;5.90;5.30;;;15.50;1.00;;;;;;5322665;26;21000;-73
2024/04/13 00:21:48;;;;;;;6.27;5.67;;;15.50;1.00;;;;;;5292926;26;20497;-75
2024/04/13 00:24:15;;;;;;;5.50;4.90;;;15.40;1.00;;;;;;5320460;26;20856;-73
2024/04/13 00:26:46;;;;;;;7.90;5.50;;;15.40;1.00;;;;;;5328105;26;21051;-72
2024/04/13 00:29:13;;;;;;;6.03;5.43;;;15.40;1.00;;;;;;5324710;26;20948;-72
2024/04/13 00:31:42;;;;;;;5.90;5.30;;;15.40;1.00;;;;;;5323884;26;20674;-72
2024/04/13 00:34:08;;;;;;;5.40;4.90;;;15.30;1.00;;;;;;5326069;26;21038;-73
2024/04/13 00:36:37;;;;;;;6.50;5.10;;;15.30;1.00;;;;;;5325617;26;20611;-70
2024/04/13 00:39:04;;;;;;;5.33;4.93;;;15.30;1.00;;;;;;5301853;26;20543;-72
2024/04/13 00:41:33;;;;;;;5.80;5.30;;;15.30;1.00;;;;;;5294073;26;20486;-73
2024/04/13 00:44:03;;;;;;;6.30;5.43;;;15.30;1.00;;;;;;5287000;26;20537;-74
2024/04/13 00:46:32;;;;;;;5.80;5.20;;;15.40;1.00;;;;;;5309863;26;20483;-71
2024/04/13 00:48:59;;;;;;;6.03;5.43;;;15.40;1.00;;;;;;5319092;26;20500;-73
2024/04/13 00:51:29;;;;;;;5.67;5.00;;;15.40;1.00;;;;;;5317277;26;20492;-70
2024/04/13 00:53:56;;;;;;;5.53;5.03;;;15.40;1.00;;;;;;5321951;26;20538;-72
2024/04/13 00:56:24;;;;;;;5.73;5.13;;;15.40;1.00;;;;;;5326489;26;20481;-73
2024/04/13 00:58:51;;;;;;;5.80;5.20;;;15.40;1.00;;;;;;5295911;26;20546;-72
2024/04/13 01:01:22;;;;;;;7.03;4.80;;;15.40;1.00;;;;;;5285148;26;20504;-75
2024/04/13 01:03:49;;;;;;;6.07;5.03;;;15.40;1.00;;;;;;5289563;26;20484;-71
2024/04/13 01:06:17;;;;;;;5.80;5.10;;;15.50;1.00;;;;;;5290637;26;21484;-70
2024/04/13 01:08:43;;;;;;;6.90;5.60;;;15.50;1.00;;;;;;5289816;26;20549;-74
2024/04/13 01:11:13;;;;;;;5.37;4.87;;;15.50;1.00;;;;;;5330528;26;21117;-72
2024/04/13 01:13:40;;;;;;;6.07;5.47;;;15.60;1.00;;;;;;5324953;26;20539;-73
2024/04/13 01:16:10;;;;;;;5.53;5.03;;;15.60;1.00;;;;;;5320735;26;20483;-71
2024/04/13 01:18:39;;;;;;;5.97;5.37;;;15.60;1.00;;;;;;5303705;26;20540;-72
2024/04/13 01:21:09;;;;;;;8.17;5.53;;;15.60;1.00;;;;;;5321819;26;20539;-70
2024/04/13 01:23:38;;;;;;;6.83;5.13;;;15.70;1.00;;;;;;5325313;26;21965;-72
2024/04/13 01:26:11;;;;;;;6.83;5.40;;;15.70;1.00;;;;;;5309433;26;20602;-72
2024/04/13 01:28:37;;;;;;;6.40;5.83;;;15.60;1.00;;;;;;5323898;26;20602;-71
2024/04/13 01:31:07;;;;;;;7.13;5.70;;;15.60;1.00;;;;;;5323508;26;20965;-73
2024/04/13 01:33:32;;;;;;;5.90;5.43;;;15.60;1.00;;;;;;5306775;26;20886;-72
2024/04/13 01:36:01;;;;;;;6.27;5.70;;;15.60;1.00;;;;;;5294342;26;20569;-71
2024/04/13 01:38:27;;;;;;;6.53;5.90;;;15.60;1.00;;;;;;5292218;26;20499;-70
2024/04/13 01:40:56;;;;;;;5.87;5.27;;;15.60;1.00;;;;;;5289317;26;20484;-71
2024/04/13 01:43:25;;;;;;;7.13;5.90;;;15.60;1.00;;;;;;5292390;26;20466;-72
2024/04/13 01:45:54;;;;;;;6.73;5.20;;;15.50;1.00;;;;;;5287643;26;20496;-71
2024/04/13 01:48:20;;;;;;;6.03;5.53;;;15.40;1.00;;;;;;5297014;26;20535;-71
2024/04/13 01:50:50;;;;;;;6.00;5.40;;;15.30;1.00;;;;;;5325893;26;20830;-69
2024/04/13 01:53:16;;;;;;;6.37;5.77;;;15.20;1.00;;;;;;5319819;26;20556;-71
2024/04/13 01:55:44;;;;;;;6.00;5.50;;;15.20;1.00;;;;;;5314503;26;20540;-73
2024/04/13 01:58:10;;;;;;;7.50;5.27;;;15.20;1.00;;;;;;5326543;26;20487;-72
2024/04/13 02:00:41;;;;;;;6.43;5.93;;;15.10;1.00;;;;;;5327749;26;21002;-72
2024/04/13 02:03:07;;;;;;;6.37;5.73;;;15.10;1.00;;;;;;5319518;26;20559;-73
2024/04/13 02:05:39;;;;;;;5.90;5.40;;;15.00;1.00;;;;;;5326204;26;20616;-73
2024/04/13 02:08:06;;;;;;;7.03;6.37;;;15.00;1.00;;;;;;5328366;26;20495;-71
2024/04/13 02:10:36;;;;;;;6.70;5.97;;;14.90;1.00;;;;;;5321413;26;20584;-70
2024/04/13 02:13:06;;;;;;;6.60;6.00;;;14.80;1.00;;;;;;5321154;26;22002;-71
2024/04/13 02:15:35;;;;;;;7.73;7.03;;;14.70;1.00;;;;;;5316038;26;20622;-71
2024/04/13 02:18:04;;;;;;;7.20;6.60;;;14.70;1.00;;;;;;5327317;26;20498;-72
2024/04/13 02:20:34;;;;;;;8.67;5.73;;;14.60;1.00;;;;;;5303852;26;20543;-74
2024/04/13 02:23:00;;;;;;;5.90;5.40;;;14.60;1.00;;;;;;5308974;26;20541;-72
2024/04/13 02:25:30;;;;;;;6.20;5.70;;;14.50;1.00;;;;;;5324772;26;20585;-71
2024/04/13 02:27:56;;;;;;;7.57;6.70;;;14.50;1.00;;;;;;5330321;26;20608;-72
2024/04/13 02:30:25;;;;;;;7.47;6.73;;;14.50;1.00;;;;;;5317511;26;20499;-72
2024/04/13 02:32:51;;;;;;;8.30;7.50;;;14.50;1.00;;;;;;5294061;26;20493;-73
2024/04/13 02:35:22;;;;;;;6.40;5.70;;;14.50;1.00;;;;;;5294510;26;20536;-74
2024/04/13 02:37:48;;;;;;;8.17;7.37;;;14.50;1.00;;;;;;5289882;26;21136;-75
2024/04/13 02:40:20;;;;;;;11.00;6.97;;;14.40;1.00;;;;;;5283853;26;20503;-73
2024/04/13 02:42:46;;;;;;;7.80;6.67;;;14.40;1.00;;;;;;5290200;26;20487;-72
2024/04/13 02:45:15;;;;;;;7.97;7.23;;;14.40;1.00;;;;;;5325469;26;20530;-72
2024/04/13 02:47:42;;;;;;;8.70;7.80;;;14.40;1.00;;;;;;5320745;26;20595;-72
2024/04/13 02:50:11;;;;;;;8.30;7.60;;;14.40;1.00;;;;;;5328065;26;21047;-71
2024/04/13 02:52:40;;;;;;;8.30;7.60;;;14.40;1.00;;;;;;5331387;26;20889;-74
2024/04/13 02:55:09;;;;;;;9.20;7.90;;;14.40;1.00;;;;;;5309803;26;20507;-73
2024/04/13 02:57:35;;;;;;;9.80;8.70;;;14.40;1.00;;;;;;5324703;26;20544;-72
2024/04/13 03:00:04;;;;;;;9.97;8.17;;;14.50;1.00;;;;;;5321429;26;20489;-73
2024/04/13 03:02:30;;;;;;;8.90;8.10;;;14.50;1.00;;;;;;5330962;26;20483;-72
2024/04/13 03:05:00;;;;;;;8.50;7.73;;;14.50;1.00;;;;;;5324738;26;20542;-72
2024/04/13 03:07:26;;;;;;;8.63;7.40;;;14.50;1.00;;;;;;5321733;26;20346;-72
2024/04/13 03:09:57;;;;;;;8.77;7.23;;;14.50;1.00;;;;;;5324994;26;20718;-72
2024/04/13 03:12:23;;;;;;;8.47;7.10;;;14.50;1.00;;;;;;5326774;26;20874;-72
2024/04/13 03:14:51;;;;;;;8.10;7.40;;;14.40;1.00;;;;;;5313679;26;20489;-73
2024/04/13 03:17:17;;;;;;;7.17;6.57;;;14.30;1.00;;;;;;5305013;26;20493;-72
2024/04/13 03:19:49;;;;;;;6.90;6.40;;;14.10;1.00;;;;;;5331181;26;20486;-72
2024/04/13 03:22:16;;;;;;;7.20;6.60;;;14.10;1.00;;;;;;5289660;26;20543;-75
2024/04/13 03:24:44;;;;;;;7.43;6.83;;;14.10;1.00;;;;;;5290342;26;20659;-71
2024/04/13 03:27:13;;;;;;;7.90;7.10;;;14.00;1.00;;;;;;5296475;26;20496;-72
2024/04/13 03:29:42;;;;;;;8.10;7.30;;;13.90;1.00;;;;;;5303622;26;20592;-73
2024/04/13 03:32:08;;;;;;;7.47;6.87;;;13.90;1.00;;;;;;5290764;26;20552;-72
2024/04/13 03:34:37;;;;;;;8.00;6.70;;;13.90;1.00;;;;;;5297518;26;21302;-73
2024/04/13 03:37:03;;;;;;;8.20;7.43;;;13.90;1.00;;;;;;5289402;26;21166;-72
2024/04/13 03:39:32;;;;;;;7.77;7.17;;;13.90;1.00;;;;;;5297180;26;21083;-69
2024/04/13 03:42:00;;;;;;;9.93;8.10;;;13.90;1.00;;;;;;5285487;26;20550;-71
2024/04/13 03:44:29;;;;;;;8.87;7.60;;;13.80;1.00;;;;;;5289610;26;20498;-72
2024/04/13 03:46:57;;;;;;;9.73;7.63;;;13.80;1.00;;;;;;5302232;26;20633;-71
2024/04/13 03:49:24;;;;;;;9.27;8.10;;;13.80;1.00;;;;;;5330183;26;20608;-72
2024/04/13 03:51:53;;;;;;;8.33;7.37;;;13.70;1.00;;;;;;5323165;26;20495;-71
2024/04/13 03:54:19;;;;;;;8.80;8.00;;;13.70;1.00;;;;;;5323880;26;20481;-70
2024/04/13 03:56:49;;;;;;;8.43;7.73;;;13.70;1.00;;;;;;5325880;26;20647;-69
2024/04/13 03:59:15;;;;;;;7.53;6.83;;;13.70;1.00;;;;;;5322146;26;20554;-72
2024/04/13 04:01:46;;;;;;;13.07;8.10;;;13.70;1.00;;;;;;5316027;26;21487;-70
2024/04/13 04:04:12;;;;;;;8.87;8.07;;;13.70;1.00;;;;;;5303678;26;20505;-71
2024/04/13 04:06:41;;;;;;;9.30;8.40;;;13.60;1.00;;;;;;5296096;26;20495;-71
2024/04/13 04:09:09;;;;;;;9.07;7.77;;;13.60;1.00;;;;;;5304426;26;21219;-71
2024/04/13 04:11:37;;;;;;;9.50;8.60;;;13.60;1.00;;;;;;5327260;26;20614;-73
2024/04/13 04:14:03;;;;;;;14.67;8.70;;;13.60;1.00;;;;;;5324111;26;20975;-69
2024/04/13 04:16:32;;;;;;;8.30;7.60;;;13.60;1.00;;;;;;5302300;26;20542;-72
2024/04/13 04:19:01;;;;;;;13.13;8.83;;;13.60;1.00;;;;;;5321802;26;20486;-72
2024/04/13 04:21:29;;;;;;;10.10;9.10;;;13.60;1.00;;;;;;5327017;26;20494;-74
2024/04/13 04:23:55;;;;;;;8.87;8.17;;;13.60;1.00;;;;;;5322491;26;20540;-72
2024/04/13 04:26:24;;;;;;;10.60;9.60;;;13.60;1.00;;;;;;5323135;26;20896;-72
2024/04/13 04:28:50;;;;;;;8.53;7.47;;;13.50;1.00;;;;;;5323195;26;21257;-71
2024/04/13 04:31:19;;;;;;;9.57;8.67;;;13.60;1.00;;;;;;5321095;26;21009;-72
2024/04/13 04:33:45;;;;;;;10.00;9.00;;;13.50;1.00;;;;;;5323725;26;20490;-71
2024/04/13 04:36:16;;;;;;;9.00;8.20;;;13.60;1.00;;;;;;5322807;26;20878;-70
2024/04/13 04:38:42;;;;;;;11.80;8.70;;;13.60;1.00;;;;;;5322576;26;20600;-71
2024/04/13 04:41:11;;;;;;;9.10;8.20;;;13.60;1.00;;;;;;5294788;26;20890;-71
2024/04/13 04:43:37;;;;;;;9.20;8.27;;;13.60;1.00;;;;;;5311624;26;20512;-71
2024/04/13 04:46:09;;;;;;;9.80;8.80;;;13.70;1.00;;;;;;5310459;26;20917;-74
2024/04/13 04:48:35;;;;;;;12.70;10.30;;;13.80;1.00;;;;;;5314783;26;20553;-71
2024/04/13 04:51:05;;;;;;;10.77;8.87;;;13.90;1.00;;;;;;5307735;26;20537;-72
2024/04/13 04:53:33;;;;;;;11.60;9.67;;;14.00;1.00;;;;;;5319475;26;20494;-72
2024/04/13 04:56:02;;;;;;;9.43;8.17;;;14.00;1.00;;;;;;5310295;26;20915;-71
2024/04/13 04:58:28;;;;;;;9.60;8.60;;;14.20;1.00;;;;;;5322516;26;20595;-72
2024/04/13 05:00:57;;;;;;;11.53;8.07;;;14.30;1.00;;;;;;5320912;26;20498;-72
2024/04/13 05:03:24;;;;;;;9.40;8.27;;;14.40;1.00;;;;;;5322697;26;20596;-71
2024/04/13 05:05:56;;;;;;;9.13;8.23;;;14.50;1.00;;;;;;5325940;26;20499;-73
2024/04/13 05:08:22;;;;;;;11.83;9.93;;;14.50;1.00;;;;;;5298282;26;20499;-72
2024/04/13 05:10:53;;;;;;;10.07;9.10;;;14.50;1.00;;;;;;5325816;26;20970;-71
2024/04/13 05:13:19;;;;;;;9.53;8.40;;;14.40;1.00;;;;;;5322111;26;21489;-72
2024/04/13 05:15:48;;;;;;;9.10;8.20;;;14.30;1.00;;;;;;5322024;26;20571;-74
2024/04/13 05:18:14;;;;;;;9.37;8.40;;;14.30;1.00;;;;;;5323326;26;20505;-71
2024/04/13 05:20:43;;;;;;;9.20;8.37;;;14.30;1.00;;;;;;5317297;26;20542;-72
2024/04/13 05:23:09;;;;;;;8.90;8.10;;;14.50;1.00;;;;;;5321691;26;21037;-72
2024/04/13 05:25:37;;;;;;;9.53;8.63;;;14.60;1.00;;;;;;5300242;26;20515;-73
2024/04/13 05:28:06;;;;;;;10.30;9.40;;;14.80;1.00;;;;;;5283183;26;21009;-72
2024/04/13 05:30:35;;;;;;;12.40;9.33;;;14.90;1.00;;;;;;5290470;26;20616;-72
2024/04/13 05:33:01;;;;;;;9.00;8.10;;;14.90;1.00;;;;;;5288453;26;20503;-73
2024/04/13 05:35:30;;;;;;;9.43;8.60;;;14.80;1.00;;;;;;5313653;26;21025;-72
2024/04/13 05:37:56;;;;;;;10.83;8.90;;;14.90;1.00;;;;;;5316056;26;20547;-72
2024/04/13 05:40:25;;;;;;;12.97;8.30;;;14.90;1.00;;;;;;5321613;26;21090;-71
2024/04/13 05:42:51;;;;;;;10.37;9.10;;;14.90;1.00;;;;;;5317581;26;21016;-73
2024/04/13 05:45:22;;;;;;;9.63;8.63;;;14.90;1.00;;;;;;5322799;26;20983;-72
2024/04/13 05:47:49;;;;;;;8.63;7.93;;;14.90;1.00;;;;;;5314919;26;20491;-73
2024/04/13 05:50:17;;;;;;;13.53;8.83;;;14.90;1.00;;;;;;5308692;26;20503;-73
2024/04/13 05:52:43;;;;;;;9.30;8.50;;;14.90;1.00;;;;;;5287700;26;20501;-72
2024/04/13 05:55:12;;;;;;;9.67;8.77;;;15.00;1.00;;;;;;5290495;26;20499;-72
2024/04/13 05:57:39;;;;;;;9.83;8.90;;;15.10;1.00;;;;;;5322495;26;20479;-73
2024/04/13 06:00:09;;;;;;;10.73;9.30;;;15.30;1.00;;;;;;5323706;26;21737;-73
2024/04/13 06:02:39;;;;;;;9.30;8.40;;;15.30;1.00;;;;;;5325463;26;20547;-74
2024/04/13 06:05:08;;;;;;;9.00;8.20;;;15.40;1.00;;;;;;5317614;26;20549;-74
2024/04/13 06:07:34;;;;;;;9.63;8.60;;;15.60;1.00;;;;;;5324498;26;20646;-74
2024/04/13 06:10:05;;;;;;;10.40;9.37;;;15.60;1.00;;;;;;5324110;26;20982;-74
2024/04/13 06:12:31;;;;;;;9.47;8.60;;;15.70;1.00;;;;;;5320746;26;20543;-74
2024/04/13 06:15:00;;;;;;;9.97;8.97;;;15.70;1.00;;;;;;5319391;26;20929;-73
2024/04/13 06:17:26;;;;;;;8.80;8.00;;;15.70;1.00;;;;;;5332213;26;20599;-73
2024/04/13 06:19:59;;;;;;;9.83;8.57;;;15.70;1.00;;;;;;5326768;26;20491;-75
2024/04/13 06:22:25;;;;;;;9.60;8.70;;;15.70;1.00;;;;;;5353425;26;20485;-72
2024/04/13 06:24:54;;;;;;;9.10;8.20;;;15.80;1.00;;;;;;5298736;26;20490;-72
2024/04/13 06:27:23;;;;;;;10.10;8.20;;;15.80;1.00;;;;;;5298982;26;20639;-73
2024/04/13 06:29:52;;;;;;;9.33;8.40;;;15.90;1.00;;;;;;5325848;26;21039;-71
2024/04/13 06:32:19;;;;;;;9.93;8.40;;;16.00;1.00;;;;;;5290874;26;20614;-72
2024/04/13 06:34:49;;;;;;;9.53;8.63;;;16.10;1.00;;;;;;5324557;26;20544;-73
2024/04/13 06:37:18;;;;;;;9.60;8.70;;;16.20;1.00;;;;;;5316142;26;21426;-72
2024/04/13 06:39:47;;;;;;;8.20;7.40;;;16.30;1.00;;;;;;5314491;26;21176;-74
2024/04/13 06:42:13;;;;;;;8.97;8.17;;;16.30;1.00;;;;;;5303368;26;21276;-74
2024/04/13 06:44:42;;;;;;;9.37;8.57;;;16.40;1.00;;;;;;5294457;26;20556;-72
2024/04/13 06:47:08;;;;;;;9.00;8.20;;;16.50;1.00;;;;;;5291729;26;20994;-73
2024/04/13 06:49:37;;;;;;;8.67;7.47;;;16.60;1.00;;;;;;5325233;26;20940;-72
2024/04/13 06:52:03;;;;;;;8.30;7.43;;;16.70;1.00;;;;;;5321123;26;20492;-70
2024/04/13 06:54:35;;;;;;;8.93;8.07;;;16.80;1.00;;;;;;5295995;26;20656;-73
2024/04/13 06:57:01;;;;;;;8.50;7.80;;;17.00;1.00;;;;;;5296002;26;20492;-71
2024/04/13 06:59:30;;;;;;;8.33;7.63;;;17.20;1.00;;;;;;5296513;26;20491;-73
2024/04/13 07:01:56;;;;;;;8.27;7.47;;;17.30;1.00;;;;;;5329635;26;20852;-71
2024/04/13 07:04:25;;;;;;;9.20;7.87;;;17.30;1.00;;;;;;5328599;26;20582;-72
2024/04/13 07:06:51;;;;;;;7.17;6.57;;;17.40;1.00;;;;;;5326875;26;20606;-72
2024/04/13 07:09:20;;;;;;;8.17;7.40;;;17.40;1.00;;;;;;5329606;26;20972;-71
2024/04/13 07:11:52;;;;;;;9.13;7.87;;;17.50;1.00;;;;;;5324774;26;20631;-72
2024/04/13 07:14:28;;;;;;;8.57;7.83;;;17.50;1.00;;;;;;5322953;26;20521;-72
2024/04/13 07:16:54;;;;;;;7.63;6.80;;;17.60;1.00;;;;;;5291238;26;22900;-72
2024/04/13 07:19:23;;;;;;;9.17;8.40;;;17.70;1.00;;;;;;5290287;26;20563;-72
2024/04/13 07:21:49;;;;;;;9.10;7.50;;;17.80;1.00;;;;;;5290587;26;20854;-72
2024/04/13 07:24:18;;;;;;;9.57;7.20;;;18.00;1.00;;;;;;5286664;26;20569;-71
2024/04/13 07:26:47;;;;;;;9.67;8.77;;;18.10;1.00;;;;;;5302731;26;20634;-73
2024/04/13 07:29:18;;;;;;;8.63;7.53;;;18.20;1.00;;;;;;5320342;26;20509;-72
2024/04/13 07:31:44;;;;;;;8.70;7.90;;;18.20;1.00;;;;;;5317530;26;20485;-72
2024/04/13 07:34:16;;;;;;;9.17;7.20;;;18.20;1.00;;;;;;5325387;26;20532;-72
2024/04/13 07:36:41;;;;;;;8.63;7.60;;;18.20;1.00;;;;;;5325772;26;20493;-72
2024/04/13 07:39:11;;;;;;;9.37;8.00;;;18.40;1.00;;;;;;5321874;26;20492;-73
2024/04/13 07:41:37;;;;;;;9.50;8.07;;;18.60;1.00;;;;;;5311882;26;20491;-73
2024/04/13 07:44:06;;;;;;;9.10;7.47;;;18.70;1.00;;;;;;5325022;26;20497;-72
2024/04/13 07:46:36;;;;;;;9.70;8.70;;;18.80;1.00;;;;;;5350718;26;20490;-72
2024/04/13 07:49:05;;;;;;;9.63;8.80;;;18.80;1.00;;;;;;5323076;26;20931;-72
2024/04/13 07:51:31;;;;;;;9.63;8.73;;;18.80;1.00;;;;;;5324414;26;21033;-71
2024/04/13 07:53:59;;;;;;;8.87;7.93;;;19.00;1.00;;;;;;5313142;26;20497;-71
2024/04/13 07:56:25;;;;;;;9.70;8.40;;;19.00;1.00;;;;;;5315259;26;20560;-73
2024/04/13 07:58:54;;;;;;;9.00;7.83;;;19.20;1.00;;;;;;5320315;26;20538;-72
2024/04/13 08:01:20;;;;;;;11.00;8.30;;;19.50;1.00;;;;;;5311664;26;20499;-72
2024/04/13 08:03:52;;;;;;;9.53;7.77;;;19.50;1.00;;;;;;5315090;26;21715;-73
2024/04/13 08:06:18;;;;;;;8.47;7.70;;;19.60;1.00;;;;;;5326812;26;20611;-72
2024/04/13 08:08:46;;;;;;;10.73;9.67;;;19.70;1.00;;;;;;5319665;26;21204;-72
2024/04/13 08:11:12;;;;;;;8.93;8.13;;;19.90;1.00;;;;;;5315964;26;20517;-72
2024/04/13 08:13:41;;;;;;;8.70;7.80;;;19.90;1.00;;;;;;5315044;26;20502;-72
2024/04/13 08:16:07;;;;;;;9.67;8.77;;;20.00;1.00;;;;;;5286620;26;20495;-72
2024/04/13 08:18:36;;;;;;;10.37;9.33;;;20.10;1.00;;;;;;5314672;26;20499;-70
2024/04/13 08:21:05;;;;;;;9.33;8.37;;;20.10;1.00;;;;;;5305296;26;20536;-71
2024/04/13 08:23:33;;;;;;;9.43;8.37;;;20.20;1.00;;;;;;5300408;26;21927;-71
2024/04/13 08:26:03;;;;;;;9.80;8.90;;;20.30;1.00;;;;;;5317330;26;20494;-72
2024/04/13 08:28:31;;;;;;;10.10;9.13;;;20.40;1.00;;;;;;5322630;26;20499;-73
2024/04/13 08:30:57;;;;;;;10.80;8.70;;;20.40;1.00;;;;;;5325676;26;20499;-70
2024/04/13 08:33:27;;;;;;;9.07;7.70;;;20.50;1.00;;;;;;5324758;26;20850;-71
2024/04/13 08:36:06;;;;;;;7.87;6.90;;;20.80;1.00;;;;;;5326222;26;20488;-71
2024/04/13 08:38:35;;;;;;;9.27;7.60;;;20.70;1.00;;;;;;5318654;26;20499;-75
2024/04/13 08:41:05;;;;;;;9.13;6.80;;;20.70;1.00;;;;;;5311646;26;21000;-70
2024/04/13 08:43:34;;;;;;;7.80;6.50;;;20.50;1.00;;;;;;5311645;26;23106;-72
2024/04/13 08:46:04;;;;;;;7.90;5.37;;;20.50;1.00;;;;;;5322789;26;20657;-71
2024/04/13 08:48:34;;;;;;;6.77;6.10;;;20.70;1.00;;;;;;5323030;26;20497;-71
2024/04/13 08:51:03;;;;;;;5.40;4.67;;;20.80;1.00;;;;;;5306563;26;20910;-70
2024/04/13 08:53:36;;;;;;;6.00;4.87;;;20.90;1.00;;;;;;5321844;26;20660;-72
2024/04/13 08:56:03;;;;;;;5.50;4.73;;;21.00;1.00;;;;;;5291240;26;20490;-70
2024/04/13 08:58:37;;;;;;;6.93;5.27;;;20.90;1.00;;;;;;5299915;26;20546;-70
2024/04/13 09:01:05;;;;;;;5.30;4.80;;;20.90;1.00;;;;;;5318034;26;20490;-71
2024/04/13 09:03:37;;;;;;;6.33;3.97;;;21.00;1.00;;;;;;5310735;26;20616;-72
2024/04/13 09:06:08;;;;;;;5.57;4.43;;;21.00;1.00;;;;;;5323639;26;20596;-73
2024/04/13 09:08:37;;;;;;;5.20;4.17;;;20.90;1.00;;;;;;5323446;26;20728;-70
2024/04/13 09:11:08;;;;;;;5.20;4.70;;;21.00;1.00;;;;;;5323486;26;20490;-73
2024/04/13 09:13:34;;;;;;;5.10;4.60;;;21.10;1.00;;;;;;5321075;26;20614;-72
2024/04/13 09:16:06;;;;;;;4.20;3.80;;;21.30;1.00;;;;;;5326357;26;20595;-70
2024/04/13 09:18:32;;;;;;;5.97;4.87;;;21.60;1.00;;;;;;5321010;26;23309;-72
2024/04/13 09:21:04;;;;;;;5.43;5.03;;;22.10;1.00;;;;;;5323957;26;21153;-70
2024/04/13 09:23:30;;;;;;;5.90;4.60;;;22.20;1.00;;;;;;5312249;26;20507;-72
2024/04/13 09:26:06;;;;;;;4.63;4.20;;;22.50;1.00;;;;;;5290513;26;20569;-70
2024/04/13 09:28:39;;;;;;;4.17;3.80;;;22.90;1.00;;;;;;5323065;26;20888;-74
2024/04/13 09:31:08;;;;;;;6.83;4.50;;;23.80;1.00;;;;;;5322291;26;21009;-73
2024/04/13 09:33:34;;;;;;;5.20;4.60;;;25.00;1.00;;;;;;5304377;26;20550;-74
2024/04/13 09:36:03;;;;;;;4.93;3.90;;;25.90;1.00;;;;;;5317235;26;21136;-72
2024/04/13 09:38:29;;;;;;;3.53;3.33;;;25.90;1.00;;;;;;5315193;26;20498;-73
2024/04/13 09:41:01;;;;;;;4.50;4.07;;;25.20;1.00;;;;;;5287169;26;20505;-74
2024/04/13 09:43:30;;;;;;;5.97;3.37;;;25.30;1.00;;;;;;5306880;26;21117;-73
2024/04/13 09:46:00;;;;;;;4.60;3.37;;;26.00;1.00;;;;;;5323331;26;20517;-72
2024/04/13 09:48:26;;;;;;;3.83;3.53;;;26.50;1.00;;;;;;5304781;26;20489;-75
2024/04/13 09:50:55;;;;;;;3.90;3.00;;;26.50;1.00;;;;;;5323375;26;21062;-73
2024/04/13 09:53:21;;;;;;;3.73;3.30;;;26.60;1.00;;;;;;5289656;26;20548;-72
2024/04/13 09:55:50;;;;;;;3.77;3.37;;;26.90;1.00;;;;;;5286712;26;21645;-76
2024/04/13 09:58:16;;;;;;;4.37;3.60;;;27.70;1.00;;;;;;5311197;26;20538;-73
2024/04/13 10:00:49;;;;;;;3.83;3.53;;;28.90;1.00;;;;;;5321747;26;20483;-73
2024/04/13 10:03:16;;;;;;;2.97;2.77;;;29.60;1.00;;;;;;5322297;26;20502;-73
2024/04/13 10:05:46;;;;;;;4.10;3.60;;;29.80;1.00;;;;;;5319949;26;20488;-73
2024/04/13 10:08:13;;;;;;;4.40;3.30;;;29.80;1.00;;;;;;5304972;26;20632;-73
2024/04/13 10:10:45;;;;;;;3.43;2.90;;;30.20;1.00;;;;;;5296242;26;21505;-73
2024/04/13 10:13:19;;;;;;;3.50;3.20;;;30.80;1.00;;;;;;5302935;26;20461;-72
2024/04/13 10:15:49;;;;;;;2.93;2.40;;;30.60;1.00;;;;;;5327089;26;20546;-73
2024/04/13 10:18:18;;;;;;;3.07;2.70;;;30.30;1.00;;;;;;5333169;26;21704;-74
2024/04/13 10:20:46;;;;;;;2.90;2.70;;;30.70;1.00;;;;;;5314387;26;20564;-74
2024/04/13 10:23:19;;;;;;;3.83;2.53;;;30.80;1.00;;;;;;5290679;26;20995;-74
2024/04/13 10:25:56;;;;;;;4.87;2.40;;;31.00;1.00;;;;;;5291133;26;20540;-73
2024/04/13 10:28:25;;;;;;;6.50;3.87;;;31.40;1.00;;;;;;5325821;26;20538;-73
2024/04/13 10:30:55;;;;;;;3.33;2.23;;;31.40;1.00;;;;;;5355524;26;21003;-75
2024/04/13 10:33:26;;;;;;;4.30;2.10;;;31.30;1.00;;;;;;5304529;26;20582;-73
2024/04/13 10:35:57;;;;;;;3.20;2.77;;;30.80;1.00;;;;;;5308019;26;20992;-73
2024/04/13 10:38:26;;;;;;;3.27;2.97;;;30.90;1.00;;;;;;5318404;26;20512;-72
2024/04/13 10:40:52;;;;;;;4.27;2.50;;;30.70;1.00;;;;;;5292257;26;20473;-71
2024/04/13 10:43:21;;;;;;;2.53;2.10;;;30.70;1.00;;;;;;5293805;26;20491;-70
2024/04/13 10:45:54;;;;;;;3.20;2.00;;;30.10;1.00;;;;;;5328397;26;20543;-71
2024/04/13 10:48:24;;;;;;;3.83;2.50;;;29.90;1.00;;;;;;5326852;26;20533;-71
2024/04/13 10:50:51;;;;;;;3.63;3.30;;;31.10;1.00;;;;;;5322786;26;21063;-72
2024/04/13 10:53:23;;;;;;;3.30;3.00;;;31.70;1.00;;;;;;5327613;26;20575;-72
2024/04/13 10:55:49;;;;;;;3.00;2.77;;;31.90;1.00;;;;;;5329181;26;20486;-71
2024/04/13 10:58:18;;;;;;;3.90;3.10;;;32.10;1.00;;;;;;5319054;26;20479;-74
2024/04/13 11:00:45;;;;;;;2.80;2.60;;;32.50;1.00;;;;;;5328638;26;20483;-73
2024/04/13 11:03:16;;;;;;;4.50;3.67;;;32.90;1.00;;;;;;5330281;26;20934;-70
2024/04/13 11:05:44;;;;;;;2.90;2.70;;;32.40;1.00;;;;;;5320327;26;21044;-72
2024/04/13 11:08:13;;;;;;;4.20;2.23;;;32.30;1.00;;;;;;5306281;26;20483;-72
2024/04/13 11:10:40;;;;;;;4.30;2.80;;;32.30;1.00;;;;;;5324802;26;20483;-72
2024/04/13 11:13:09;;;;;;;4.20;3.90;;;32.40;1.00;;;;;;5322604;26;20525;-73
2024/04/13 11:15:35;;;;;;;4.30;3.10;;;32.80;1.00;;;;;;5321782;26;20602;-72
2024/04/13 11:18:04;;;;;;;4.70;2.70;;;33.30;1.00;;;;;;5321299;26;20498;-72
2024/04/13 11:20:34;;;;;;;4.20;2.90;;;33.30;1.00;;;;;;5319240;26;20654;-73
2024/04/13 11:23:04;;;;;;;3.70;2.60;;;32.10;1.00;;;;;;5311773;26;20598;-77
2024/04/13 11:25:30;;;;;;;3.60;2.57;;;32.00;1.00;;;;;;5322636;26;21141;-73
2024/04/13 11:27:59;;;;;;;5.90;3.50;;;31.80;1.00;;;;;;5320505;26;20491;-73
2024/04/13 11:30:25;;;;;;;3.70;3.00;;;32.00;1.00;;;;;;5321327;26;20481;-72
2024/04/13 11:32:54;;;;;;;2.60;2.40;;;33.10;1.00;;;;;;5329230;26;20496;-71
2024/04/13 11:35:21;;;;;;;3.77;2.93;;;33.40;1.00;;;;;;5322587;26;20496;-72
2024/04/13 11:38:01;;;;;;;2.67;2.47;;;33.70;1.00;;;;;;5313352;26;20492;-74
2024/04/13 11:40:34;;;;;;;3.90;2.47;;;33.90;1.00;;;;;;5328592;26;20518;-73
2024/04/13 11:43:03;;;;;;;3.23;2.30;;;34.10;1.00;;;;;;5318712;26;20495;-73
2024/04/13 11:45:30;;;;;;;4.90;2.00;;;34.20;1.00;;;;;;5312457;26;20475;-73
2024/04/13 11:48:01;;;;;;;2.60;2.40;;;34.50;1.00;;;;;;5322705;26;21207;-74
2024/04/13 11:50:29;;;;;;;4.70;2.50;;;34.60;1.00;;;;;;5327011;26;21063;-75
2024/04/13 11:53:01;;;;;;;5.53;3.00;;;34.00;1.00;;;;;;5329260;26;22760;-75
2024/04/13 11:55:31;;;;;;;2.30;2.10;;;33.80;1.00;;;;;;5286112;26;21031;-75
2024/04/13 11:58:00;;;;;;;2.90;2.10;;;34.10;1.00;;;;;;5304126;26;20570;-74
2024/04/13 12:00:26;;;;;;;4.90;2.10;;;34.90;1.00;;;;;;5379331;26;20658;-74
2024/04/13 12:02:56;;;;;;;3.10;2.13;;;35.30;1.00;;;;;;5329162;26;20490;-75
2024/04/13 12:05:22;;;;;;;2.10;1.90;;;36.00;1.00;;;;;;5318036;26;20361;-74
2024/04/13 12:07:50;;;;;;;2.53;1.90;;;36.40;1.00;;;;;;5327194;26;20921;-72
2024/04/13 12:10:19;;;;;;;2.80;2.20;;;36.70;1.00;;;;;;5329716;26;20503;-74
2024/04/13 12:12:48;;;;;;;2.13;1.90;;;36.20;1.00;;;;;;5328884;26;21074;-74
2024/04/13 12:15:14;;;;;;;2.83;1.23;;;36.40;1.00;;;;;;5319389;26;20964;-75
2024/04/13 12:17:43;;;;;;;2.87;1.87;;;35.60;1.00;;;;;;5294747;26;20512;-75
2024/04/13 12:20:09;;;;;;;2.77;1.60;;;35.40;1.00;;;;;;5322608;26;20495;-73
2024/04/13 12:22:38;;;;;;;1.40;1.30;;;35.50;1.00;;;;;;5317819;26;21026;-76
2024/04/13 12:25:04;;;;;;;2.47;1.57;;;35.50;1.00;;;;;;5323563;26;21081;-73
2024/04/13 12:27:36;;;;;;;2.03;1.60;;;35.50;1.00;;;;;;5332052;26;20533;-74
2024/04/13 12:30:03;;;;;;;4.30;1.60;;;35.60;1.00;;;;;;5322846;26;20892;-74
2024/04/13 12:32:32;;;;;;;2.70;1.70;;;35.20;1.00;;;;;;5324076;26;20499;-76
2024/04/13 12:34:58;;;;;;;1.57;1.47;;;34.90;1.00;;;;;;5332218;26;20646;-74
2024/04/13 12:37:27;;;;;;;2.77;1.80;;;34.40;1.00;;;;;;5303681;26;20949;-75
2024/04/13 12:39:53;;;;;;;4.10;2.00;;;34.20;1.00;;;;;;5310481;26;20480;-74
2024/04/13 12:42:23;;;;;;;1.83;1.70;;;34.20;1.00;;;;;;5325480;26;20499;-74
2024/04/13 12:44:52;;;;;;;2.30;1.77;;;34.30;1.00;;;;;;5329947;26;20272;-74
2024/04/13 12:47:21;;;;;;;2.27;1.90;;;34.80;1.00;;;;;;5332413;26;20572;-74
2024/04/13 12:49:47;;;;;;;2.00;1.90;;;34.60;1.00;;;;;;5328415;26;20607;-76
2024/04/13 12:52:16;;;;;;;3.17;1.87;;;34.50;1.00;;;;;;5321844;26;20559;-74
2024/04/13 12:54:42;;;;;;;3.60;1.93;;;34.70;1.00;;;;;;5328151;26;20482;-74
2024/04/13 12:57:12;;;;;;;2.20;1.73;;;34.90;1.00;;;;;;5305896;26;20653;-74
2024/04/13 12:59:38;;;;;;;2.13;1.50;;;34.80;1.00;;;;;;5288583;26;20545;-72
2024/04/13 13:02:10;;;;;;;2.63;2.00;;;34.90;1.00;;;;;;5323068;26;20851;-73